Wetterdaten: Samstag, 10.01.2015
Datum Zeit Temp. A. Feuchte A. Luftdruck Regen Wind Richtung Richtung Sonnenschein ET UV Solar Taupunkt Windchill Windben Empfang
10.01.2015 00:00 8,8 C 74 % 1014,9 hPa 0,0 l/m 9,7 km/h (2 Bft) SO 133 0 min 0,000 mm 0,0 UV-I 0 W/m 4,4 C 6,5 C 11,9 km/h (2 Bft) 0,00 %
10.01.2015 00:15 8,7 C 75 % 1014,5 hPa 0,0 l/m 7,9 km/h (2 Bft) S 176 0 min 0,000 mm 0,0 UV-I 0 W/m 4,5 C 7,6 C 15,8 km/h (3 Bft) 0,00 %
10.01.2015 00:30 8,5 C 77 % 1013,9 hPa 0,3 l/m 14,0 km/h (3 Bft) W-SW 253 0 min 0,000 mm 0,0 UV-I 0 W/m 4,7 C 3,8 C 24,1 km/h (4 Bft) 0,00 %
10.01.2015 00:45 8,2 C 81 % 1013,4 hPa 0,3 l/m 0,4 km/h (0 Bft) S 183 0 min 0,000 mm 0,0 UV-I 0 W/m 5,1 C 8,2 C 4,0 km/h (1 Bft) 0,00 %
10.01.2015 01:00 7,7 C 83 % 1013,2 hPa 0,3 l/m 1,4 km/h (1 Bft) W-SW 256 0 min 0,000 mm 0,0 UV-I 0 W/m 5,0 C 7,7 C 4,0 km/h (1 Bft) 0,00 %
10.01.2015 01:15 7,7 C 83 % 1013,2 hPa 0,0 l/m 1,4 km/h (1 Bft) SW 224 0 min 0,000 mm 0,0 UV-I 0 W/m 5,0 C 7,7 C 4,0 km/h (1 Bft) 0,00 %
10.01.2015 01:30 7,9 C 83 % 1012,9 hPa 0,3 l/m 0,4 km/h (0 Bft) S-SW 209 0 min 0,000 mm 0,0 UV-I 0 W/m 5,2 C 7,9 C 4,0 km/h (1 Bft) 0,00 %
10.01.2015 01:45 9,0 C 81 % 1012,4 hPa 0,0 l/m 19,8 km/h (3 Bft) W-SW 256 0 min 0,000 mm 0,0 UV-I 0 W/m 5,9 C 2,1 C 32,0 km/h (5 Bft) 0,00 %
10.01.2015 02:00 9,3 C 81 % 1012,4 hPa 0,0 l/m 4,7 km/h (1 Bft) S 183 0 min 0,000 mm 0,0 UV-I 0 W/m 6,2 C 9,3 C 7,9 km/h (2 Bft) 0,00 %
10.01.2015 02:15 9,4 C 80 % 1012,4 hPa 0,6 l/m 5,8 km/h (2 Bft) W-SW 255 0 min 0,000 mm 0,0 UV-I 0 W/m 6,1 C 9,4 C 7,9 km/h (2 Bft) 0,00 %
10.01.2015 02:30 9,5 C 81 % 1012,1 hPa 0,3 l/m 7,2 km/h (2 Bft) W-SW 244 0 min 0,000 mm 0,0 UV-I 0 W/m 6,4 C 8,9 C 11,9 km/h (2 Bft) 0,00 %
10.01.2015 02:45 9,6 C 81 % 1012,0 hPa 0,6 l/m 5,4 km/h (1 Bft) W-SW 256 0 min 0,000 mm 0,0 UV-I 0 W/m 6,5 C 9,6 C 11,9 km/h (2 Bft) 0,00 %
10.01.2015 03:00 9,9 C 81 % 1011,9 hPa 0,3 l/m 9,7 km/h (2 Bft) W-SW 252 0 min 0,000 mm 0,0 UV-I 0 W/m 6,8 C 7,7 C 15,8 km/h (3 Bft) 0,00 %
10.01.2015 03:15 10,0 C 81 % 1011,3 hPa 0,3 l/m 9,7 km/h (2 Bft) SW 233 0 min 0,000 mm 0,0 UV-I 0 W/m 6,9 C 7,8 C 11,9 km/h (2 Bft) 0,00 %
10.01.2015 03:30 10,4 C 79 % 1011,0 hPa 0,0 l/m 23,0 km/h (4 Bft) W-SW 256 0 min 0,000 mm 0,0 UV-I 0 W/m 6,9 C 2,9 C 32,0 km/h (5 Bft) 0,00 %
10.01.2015 03:45 11,1 C 74 % 1011,1 hPa 0,0 l/m 14,0 km/h (3 Bft) N-NW 329 0 min 0,000 mm 0,0 UV-I 0 W/m 6,6 C 6,9 C 15,8 km/h (3 Bft) 0,00 %
10.01.2015 04:00 11,8 C 69 % 1010,6 hPa 0,0 l/m 25,6 km/h (4 Bft) W-SW 240 0 min 0,000 mm 0,0 UV-I 0 W/m 6,3 C 4,1 C 32,0 km/h (5 Bft) 0,00 %
10.01.2015 04:15 12,0 C 69 % 1011,0 hPa 0,0 l/m 11,5 km/h (2 Bft) W-SW 256 0 min 0,000 mm 0,0 UV-I 0 W/m 6,5 C 9,1 C 19,8 km/h (3 Bft) 0,00 %
10.01.2015 04:30 12,3 C 67 % 1011,3 hPa 0,0 l/m 14,8 km/h (3 Bft) O-NO 60 0 min 0,000 mm 0,0 UV-I 0 W/m 6,4 C 8,0 C 24,1 km/h (4 Bft) 0,00 %
10.01.2015 04:45 12,8 C 64 % 1010,9 hPa 0,0 l/m 13,0 km/h (3 Bft) N 357 0 min 0,000 mm 0,0 UV-I 0 W/m 6,2 C 9,3 C 19,8 km/h (3 Bft) 0,00 %
10.01.2015 05:00 12,5 C 67 % 1012,2 hPa 0,0 l/m 13,3 km/h (3 Bft) O 91 0 min 0,000 mm 0,0 UV-I 0 W/m 6,5 C 8,8 C 19,8 km/h (3 Bft) 0,00 %
10.01.2015 05:15 12,1 C 68 % 1012,3 hPa 0,0 l/m 14,4 km/h (3 Bft) W-SW 252 0 min 0,000 mm 0,0 UV-I 0 W/m 6,4 C 7,9 C 24,1 km/h (4 Bft) 0,00 %
10.01.2015 05:30 12,1 C 69 % 1012,6 hPa 0,0 l/m 4,7 km/h (1 Bft) W-SW 256 0 min 0,000 mm 0,0 UV-I 0 W/m 6,6 C 12,1 C 7,9 km/h (2 Bft) 0,00 %
10.01.2015 05:45 11,9 C 70 % 1013,1 hPa 0,0 l/m 9,0 km/h (2 Bft) W-NW 286 0 min 0,000 mm 0,0 UV-I 0 W/m 6,6 C 10,2 C 11,9 km/h (2 Bft) 0,00 %
10.01.2015 06:00 11,9 C 70 % 1013,2 hPa 0,0 l/m 18,4 km/h (3 Bft) N-NW 329 0 min 0,000 mm 0,0 UV-I 0 W/m 6,6 C 6,2 C 32,0 km/h (5 Bft) 0,00 %
10.01.2015 06:15 11,8 C 70 % 1013,0 hPa 0,0 l/m 6,5 km/h (2 Bft) W 260 0 min 0,000 mm 0,0 UV-I 0 W/m 6,5 C 11,8 C 11,9 km/h (2 Bft) 0,00 %
10.01.2015 06:30 11,8 C 70 % 1013,2 hPa 0,0 l/m 7,9 km/h (2 Bft) W-SW 258 0 min 0,000 mm 0,0 UV-I 0 W/m 6,5 C 10,8 C 11,9 km/h (2 Bft) 0,00 %
10.01.2015 06:45 11,8 C 70 % 1013,0 hPa 0,0 l/m 11,9 km/h (2 Bft) W-SW 252 0 min 0,000 mm 0,0 UV-I 0 W/m 6,5 C 8,6 C 15,8 km/h (3 Bft) 0,00 %
10.01.2015 07:00 12,0 C 69 % 1013,3 hPa 0,0 l/m 3,2 km/h (1 Bft) SW 232 0 min 0,000 mm 0,0 UV-I 0 W/m 6,5 C 12,0 C 4,0 km/h (1 Bft) 0,00 %
10.01.2015 07:15 12,0 C 69 % 1013,0 hPa 0,0 l/m 14,4 km/h (3 Bft) W-SW 252 0 min 0,000 mm 0,0 UV-I 0 W/m 6,5 C 7,8 C 19,8 km/h (3 Bft) 0,00 %
10.01.2015 07:30 12,1 C 69 % 1013,2 hPa 0,0 l/m 9,4 km/h (2 Bft) N-NW 344 0 min 0,000 mm 0,0 UV-I 0 W/m 6,6 C 10,2 C 15,8 km/h (3 Bft) 0,00 %
10.01.2015 07:45 12,2 C 69 % 1013,5 hPa 0,0 l/m 6,5 km/h (2 Bft) W-SW 256 0 min 0,000 mm 0,0 UV-I 0 W/m 6,7 C 12,2 C 11,9 km/h (2 Bft) 0,00 %
10.01.2015 08:00 11,8 C 72 % 1013,7 hPa 0,0 l/m 7,2 km/h (2 Bft) W-SW 255 0 min 0,000 mm 0,0 UV-I 0 W/m 6,9 C 11,3 C 11,9 km/h (2 Bft) 0,00 %
10.01.2015 08:15 11,4 C 77 % 1013,8 hPa 0,3 l/m 9,4 km/h (2 Bft) SW 217 0 min 0,000 mm 0,0 UV-I 0 W/m 7,5 C 9,5 C 15,8 km/h (3 Bft) 0,00 %
10.01.2015 08:30 11,4 C 77 % 1013,8 hPa 0,0 l/m 2,9 km/h (1 Bft) NW 313 0 min 0,000 mm 0,0 UV-I 2 W/m 7,5 C 11,4 C 4,0 km/h (1 Bft) 0,00 %
10.01.2015 08:45 11,8 C 71 % 1013,7 hPa 0,0 l/m 6,5 km/h (2 Bft) W-SW 250 0 min 0,000 mm 0,0 UV-I 5 W/m 6,7 C 11,8 C 11,9 km/h (2 Bft) 0,00 %
10.01.2015 09:00 12,8 C 67 % 1013,2 hPa 0,0 l/m 24,8 km/h (4 Bft) W-SW 249 0 min 0,000 mm 0,0 UV-I 11 W/m 6,8 C 5,7 C 32,0 km/h (5 Bft) 0,00 %
10.01.2015 09:15 13,1 C 66 % 1013,0 hPa 0,0 l/m 34,6 km/h (5 Bft) W-SW 252 0 min 0,000 mm 1,0 UV-I 29 W/m 6,9 C 4,2 C 40,0 km/h (6 Bft) 0,00 %
10.01.2015 09:30 13,7 C 62 % 1013,6 hPa 0,0 l/m 20,5 km/h (4 Bft) W 262 0 min 0,000 mm 1,0 UV-I 70 W/m 6,6 C 7,9 C 28,1 km/h (4 Bft) 0,00 %
10.01.2015 09:45 14,0 C 62 % 1012,8 hPa 0,0 l/m 13,3 km/h (3 Bft) W-SW 255 0 min 0,000 mm 1,0 UV-I 83 W/m 6,8 C 10,6 C 19,8 km/h (3 Bft) 0,00 %
10.01.2015 10:00 14,4 C 60 % 1012,6 hPa 0,0 l/m 4,3 km/h (1 Bft) NO 36 15 min 0,000 mm 1,0 UV-I 139 W/m 6,7 C 14,4 C 7,9 km/h (2 Bft) 0,00 %
10.01.2015 10:15 14,8 C 57 % 1012,2 hPa 0,0 l/m 14,0 km/h (3 Bft) O 89 15 min 0,000 mm 1,0 UV-I 156 W/m 6,4 C 11,3 C 19,8 km/h (3 Bft) 0,00 %
10.01.2015 10:30 15,2 C 55 % 1011,9 hPa 0,0 l/m 19,8 km/h (3 Bft) NW 308 15 min 0,000 mm 1,0 UV-I 166 W/m 6,2 C 10,1 C 36,0 km/h (5 Bft) 0,00 %
10.01.2015 10:45 15,4 C 52 % 1011,7 hPa 0,0 l/m 10,8 km/h (2 Bft) N 353 15 min 0,000 mm 1,0 UV-I 177 W/m 5,6 C 13,2 C 19,8 km/h (3 Bft) 0,00 %
10.01.2015 11:00 15,6 C 52 % 1011,7 hPa 0,0 l/m 24,5 km/h (4 Bft) W-SW 249 15 min 0,000 mm 1,0 UV-I 188 W/m 5,8 C 9,5 C 40,0 km/h (6 Bft) 0,00 %
10.01.2015 11:15 15,7 C 52 % 1011,7 hPa 0,0 l/m 9,0 km/h (2 Bft) W-SW 256 15 min 0,000 mm 1,0 UV-I 199 W/m 5,9 C 14,3 C 24,1 km/h (4 Bft) 0,00 %
10.01.2015 11:30 15,6 C 52 % 1011,2 hPa 0,0 l/m 9,4 km/h (2 Bft) W-NW 289 15 min 0,000 mm 1,0 UV-I 211 W/m 5,8 C 14,1 C 11,9 km/h (2 Bft) 0,00 %
10.01.2015 11:45 15,5 C 53 % 1011,2 hPa 0,0 l/m 9,7 km/h (2 Bft) W-SW 256 15 min 0,000 mm 2,0 UV-I 222 W/m 6,0 C 13,8 C 11,9 km/h (2 Bft) 0,00 %
10.01.2015 12:00 15,8 C 52 % 1010,8 hPa 0,0 l/m 9,4 km/h (2 Bft) NW 307 15 min 0,000 mm 1,0 UV-I 222 W/m 6,0 C 14,3 C 11,9 km/h (2 Bft) 0,00 %
10.01.2015 12:15 15,9 C 51 % 1010,3 hPa 0,0 l/m 14,0 km/h (3 Bft) W-SW 256 15 min 0,000 mm 1,0 UV-I 211 W/m 5,8 C 12,6 C 19,8 km/h (3 Bft) 0,00 %
10.01.2015 12:30 15,9 C 52 % 1009,9 hPa 0,0 l/m 7,9 km/h (2 Bft) W-SW 256 15 min 0,000 mm 1,0 UV-I 205 W/m 6,1 C 15,1 C 11,9 km/h (2 Bft) 0,00 %
10.01.2015 12:45 16,2 C 50 % 1009,3 hPa 0,0 l/m 10,8 km/h (2 Bft) SW 222 0 min 0,000 mm 1,0 UV-I 81 W/m 5,8 C 14,1 C 19,8 km/h (3 Bft) 0,00 %
10.01.2015 13:00 16,2 C 50 % 1008,9 hPa 0,0 l/m 8,3 km/h (2 Bft) NW 309 0 min 0,000 mm 1,0 UV-I 82 W/m 5,8 C 15,2 C 15,8 km/h (3 Bft) 0,00 %
10.01.2015 13:15 16,2 C 50 % 1008,9 hPa 0,0 l/m 6,5 km/h (2 Bft) S-SW 199 0 min 0,000 mm 1,0 UV-I 80 W/m 5,8 C 16,2 C 11,9 km/h (2 Bft) 0,00 %
10.01.2015 13:30 16,3 C 50 % 1008,8 hPa 0,0 l/m 4,0 km/h (1 Bft) O-SO 122 0 min 0,000 mm 1,0 UV-I 77 W/m 5,9 C 16,3 C 7,9 km/h (2 Bft) 0,00 %
10.01.2015 13:45 16,5 C 48 % 1008,5 hPa 0,0 l/m 4,7 km/h (1 Bft) S-SW 199 0 min 0,000 mm 1,0 UV-I 74 W/m 5,5 C 16,5 C 7,9 km/h (2 Bft) 0,00 %
10.01.2015 14:00 16,6 C 48 % 1008,5 hPa 0,0 l/m 4,3 km/h (1 Bft) SW 231 0 min 0,000 mm 1,0 UV-I 72 W/m 5,5 C 16,6 C 7,9 km/h (2 Bft) 0,00 %
10.01.2015 14:15 16,7 C 46 % 1008,4 hPa 0,0 l/m 11,5 km/h (2 Bft) W-SW 255 0 min 0,000 mm 1,0 UV-I 71 W/m 5,0 C 14,4 C 15,8 km/h (3 Bft) 0,00 %
10.01.2015 14:30 16,7 C 44 % 1008,1 hPa 0,0 l/m 9,0 km/h (2 Bft) S-SW 212 0 min 0,000 mm 1,0 UV-I 71 W/m 4,4 C 15,4 C 15,8 km/h (3 Bft) 0,00 %
10.01.2015 14:45 16,6 C 45 % 1008,1 hPa 0,0 l/m 12,2 km/h (2 Bft) W-SW 251 0 min 0,000 mm 1,0 UV-I 66 W/m 4,6 C 14,0 C 15,8 km/h (3 Bft) 0,00 %
10.01.2015 15:00 16,4 C 48 % 1008,6 hPa 0,0 l/m 14,4 km/h (3 Bft) W 260 0 min 0,000 mm 1,0 UV-I 60 W/m 5,4 C 13,1 C 24,1 km/h (4 Bft) 0,00 %
10.01.2015 15:15 16,1 C 49 % 1008,7 hPa 0,0 l/m 4,7 km/h (1 Bft) W-SW 250 0 min 0,000 mm 1,0 UV-I 59 W/m 5,4 C 16,1 C 7,9 km/h (2 Bft) 0,00 %
10.01.2015 15:30 15,8 C 50 % 1008,5 hPa 0,0 l/m 6,5 km/h (2 Bft) S-SO 167 0 min 0,000 mm 1,0 UV-I 52 W/m 5,4 C 15,8 C 11,9 km/h (2 Bft) 0,00 %
10.01.2015 15:45 15,4 C 50 % 1008,7 hPa 0,0 l/m 7,2 km/h (2 Bft) NW 320 0 min 0,000 mm 0,0 UV-I 38 W/m 5,0 C 15,0 C 15,8 km/h (3 Bft) 0,00 %
10.01.2015 16:00 15,1 C 50 % 1009,2 hPa 0,0 l/m 14,4 km/h (3 Bft) W 274 0 min 0,000 mm 0,0 UV-I 21 W/m 4,8 C 11,5 C 19,8 km/h (3 Bft) 0,00 %
10.01.2015 16:15 14,8 C 51 % 1009,3 hPa 0,0 l/m 4,7 km/h (1 Bft) W-SW 252 0 min 0,000 mm 0,0 UV-I 3 W/m 4,8 C 14,8 C 7,9 km/h (2 Bft) 0,00 %
10.01.2015 16:30 14,5 C 51 % 1009,6 hPa 0,0 l/m 11,9 km/h (2 Bft) W 259 0 min 0,000 mm 0,0 UV-I 0 W/m 4,5 C 11,7 C 19,8 km/h (3 Bft) 0,00 %
10.01.2015 16:45 14,3 C 51 % 1009,6 hPa 0,0 l/m 14,8 km/h (3 Bft) W-NW 303 0 min 0,000 mm 0,0 UV-I 0 W/m 4,3 C 10,4 C 15,8 km/h (3 Bft) 0,00 %
10.01.2015 17:00 14,2 C 52 % 1009,6 hPa 0,0 l/m 14,0 km/h (3 Bft) S 183 0 min 0,000 mm 0,0 UV-I 0 W/m 4,5 C 10,6 C 24,1 km/h (4 Bft) 0,00 %
10.01.2015 17:15 14,2 C 52 % 1009,6 hPa 0,0 l/m 14,0 km/h (3 Bft) W-SW 256 0 min 0,000 mm 0,0 UV-I 0 W/m 4,5 C 10,6 C 19,8 km/h (3 Bft) 0,00 %
10.01.2015 17:30 14,2 C 51 % 1009,9 hPa 0,0 l/m 19,1 km/h (3 Bft) SW 218 0 min 0,000 mm 0,0 UV-I 0 W/m 4,2 C 9,0 C 32,0 km/h (5 Bft) 0,00 %
10.01.2015 17:45 14,0 C 52 % 1010,1 hPa 0,0 l/m 5,4 km/h (1 Bft) W-NW 285 0 min 0,000 mm 0,0 UV-I 0 W/m 4,3 C 14,0 C 7,9 km/h (2 Bft) 0,00 %
10.01.2015 18:00 14,2 C 51 % 1009,8 hPa 0,0 l/m 18,0 km/h (3 Bft) W-SW 256 0 min 0,000 mm 0,0 UV-I 0 W/m 4,2 C 9,3 C 24,1 km/h (4 Bft) 0,00 %
10.01.2015 18:15 14,4 C 51 % 1009,7 hPa 0,0 l/m 7,9 km/h (2 Bft) S-SW 204 0 min 0,000 mm 0,0 UV-I 0 W/m 4,4 C 13,5 C 15,8 km/h (3 Bft) 0,00 %
10.01.2015 18:30 14,4 C 50 % 1009,4 hPa 0,0 l/m 24,8 km/h (4 Bft) W 277 0 min 0,000 mm 0,0 UV-I 0 W/m 4,1 C 7,8 C 36,0 km/h (5 Bft) 0,00 %
10.01.2015 18:45 14,6 C 50 % 1009,5 hPa 0,0 l/m 9,0 km/h (2 Bft) NW 324 0 min 0,000 mm 0,0 UV-I 0 W/m 4,3 C 13,2 C 11,9 km/h (2 Bft) 0,00 %
10.01.2015 19:00 14,6 C 50 % 1009,2 hPa 0,0 l/m 8,3 km/h (2 Bft) NW 308 0 min 0,000 mm 0,0 UV-I 0 W/m 4,3 C 13,5 C 15,8 km/h (3 Bft) 0,00 %
10.01.2015 19:15 14,6 C 49 % 1009,0 hPa 0,0 l/m 14,4 km/h (3 Bft) SW 228 0 min 0,000 mm 0,0 UV-I 0 W/m 4,0 C 10,9 C 19,8 km/h (3 Bft) 0,00 %
10.01.2015 19:30 14,6 C 50 % 1009,0 hPa 0,0 l/m 10,4 km/h (2 Bft) W-SW 255 0 min 0,000 mm 0,0 UV-I 0 W/m 4,3 C 12,5 C 11,9 km/h (2 Bft) 0,00 %
10.01.2015 19:45 14,5 C 51 % 1008,7 hPa 0,0 l/m 9,4 km/h (2 Bft) S-SW 207 0 min 0,000 mm 0,0 UV-I 0 W/m 4,5 C 12,9 C 11,9 km/h (2 Bft) 0,00 %
10.01.2015 20:00 14,6 C 49 % 1008,8 hPa 0,0 l/m 7,9 km/h (2 Bft) W-SW 258 0 min 0,000 mm 0,0 UV-I 0 W/m 4,0 C 13,7 C 11,9 km/h (2 Bft) 0,00 %
10.01.2015 20:15 14,6 C 49 % 1008,5 hPa 0,0 l/m 8,3 km/h (2 Bft) N-NW 330 0 min 0,000 mm 0,0 UV-I 0 W/m 4,0 C 13,5 C 15,8 km/h (3 Bft) 0,00 %
10.01.2015 20:30 14,6 C 49 % 1008,6 hPa 0,0 l/m 29,9 km/h (5 Bft) W 263 0 min 0,000 mm 0,0 UV-I 0 W/m 4,0 C 7,1 C 44,3 km/h (6 Bft) 0,00 %
10.01.2015 20:45 14,7 C 48 % 1008,6 hPa 0,0 l/m 7,9 km/h (2 Bft) NW 312 0 min 0,000 mm 0,0 UV-I 0 W/m 3,8 C 13,8 C 15,8 km/h (3 Bft) 0,00 %
10.01.2015 21:00 14,7 C 48 % 1008,7 hPa 0,0 l/m 16,6 km/h (3 Bft) S-SO 159 0 min 0,000 mm 0,0 UV-I 0 W/m 3,8 C 10,3 C 24,1 km/h (4 Bft) 0,00 %
10.01.2015 21:15 14,6 C 48 % 1008,6 hPa 0,0 l/m 14,8 km/h (3 Bft) W-NW 289 0 min 0,000 mm 0,0 UV-I 0 W/m 3,7 C 10,8 C 19,8 km/h (3 Bft) 0,00 %
10.01.2015 21:30 14,5 C 48 % 1008,8 hPa 0,0 l/m 6,8 km/h (2 Bft) NW 320 0 min 0,000 mm 0,0 UV-I 0 W/m 3,6 C 14,3 C 7,9 km/h (2 Bft) 0,00 %
10.01.2015 21:45 14,5 C 47 % 1008,6 hPa 0,0 l/m 14,0 km/h (3 Bft) W-SW 255 0 min 0,000 mm 0,0 UV-I 0 W/m 3,3 C 10,9 C 19,8 km/h (3 Bft) 0,00 %
10.01.2015 22:00 14,3 C 50 % 1009,0 hPa 0,0 l/m 4,0 km/h (1 Bft) NW 310 0 min 0,000 mm 0,0 UV-I 0 W/m 4,0 C 14,3 C 7,9 km/h (2 Bft) 0,00 %
10.01.2015 22:15 14,1 C 50 % 1009,2 hPa 0,0 l/m 14,8 km/h (3 Bft) W-SW 256 0 min 0,000 mm 0,0 UV-I 0 W/m 3,8 C 10,2 C 15,8 km/h (3 Bft) 0,00 %
10.01.2015 22:30 14,2 C 49 % 1009,2 hPa 0,0 l/m 4,3 km/h (1 Bft) S 185 0 min 0,000 mm 0,0 UV-I 0 W/m 3,6 C 14,2 C 15,8 km/h (3 Bft) 0,00 %
10.01.2015 22:45 13,8 C 50 % 1009,3 hPa 0,0 l/m 15,5 km/h (3 Bft) W-SW 257 0 min 0,000 mm 0,0 UV-I 0 W/m 3,6 C 9,6 C 19,8 km/h (3 Bft) 0,00 %
10.01.2015 23:00 13,9 C 51 % 1009,2 hPa 0,0 l/m 4,0 km/h (1 Bft) W-SW 255 0 min 0,000 mm 0,0 UV-I 0 W/m 3,9 C 13,9 C 7,9 km/h (2 Bft) 0,00 %
10.01.2015 23:15 13,8 C 50 % 1009,3 hPa 0,0 l/m 5,8 km/h (2 Bft) SW 217 0 min 0,000 mm 0,0 UV-I 0 W/m 3,6 C 13,8 C 11,9 km/h (2 Bft) 0,00 %
10.01.2015 23:30 13,7 C 50 % 1009,0 hPa 0,0 l/m 29,9 km/h (5 Bft) W-SW 256 0 min 0,000 mm 0,0 UV-I 0 W/m 3,5 C 5,9 C 36,0 km/h (5 Bft) 0,00 %
10.01.2015 23:45 13,6 C 50 % 1009,2 hPa 0,0 l/m 13,3 km/h (3 Bft) W-NW 290 0 min 0,000 mm 0,0 UV-I 0 W/m 3,4 C 10,1 C 15,8 km/h (3 Bft) 0,00 %
_ Min-Zeit 01:00 14:30 14:30 - 00:45 - - - - - - 21:45 01:45 00:45 00:00
Minimum _ 7,7 C 44 % 1008,1 hPa - 0,4 km/h (0 Bft) - - - - - - 3,3 C 2,1 C 4,0 km/h (1 Bft) 0,00 %
_ Max-Zeit 14:15 01:00 00:00 02:15 09:15 - - 10:00 00:00 11:45 11:45 08:15 14:00 20:30 00:00
Maximum _ 16,7 C 83 % 1014,9 hPa 0,6 l/m 34,6 km/h
W-SW (5 Bft)
- - 15 min 0,000 mm 2,0 UV-I 222 W/m 7,5 C 16,6 C 44,3 km/h
W (6 Bft)
0,00 %
Durchschnitt _ 13,4 C 60 % 1010,8 hPa #3,6 l/m 11,2 km/h (2 Bft) W-SW - #2:45 h #0,000 mm 1,0 UV-I 100 W/m 5,4 C 11,0 C 17,1 km/h (3 Bft) 0,00 %